createdAt,value
2018-11-04T00:00:23.095Z,0.20
2018-11-04T00:02:51.050Z,0.20
2018-11-04T00:05:19.022Z,0.10
2018-11-04T00:07:48.221Z,0.10
2018-11-04T00:10:16.129Z,0.10
2018-11-04T00:12:44.281Z,0.10
2018-11-04T00:15:12.452Z,0.10
2018-11-04T00:17:40.742Z,0.00
2018-11-04T00:20:11.398Z,0.00
2018-11-04T00:22:39.647Z,0.00
2018-11-04T00:25:09.495Z,0.00
2018-11-04T00:27:37.665Z,0.00
2018-11-04T00:30:07.429Z,-0.10
2018-11-04T00:32:35.557Z,-0.20
2018-11-04T00:35:03.763Z,-0.20
2018-11-04T00:37:31.922Z,-0.20
2018-11-04T00:40:00.064Z,-0.20
2018-11-04T00:42:28.198Z,-0.20
2018-11-04T00:44:56.473Z,-0.20
2018-11-04T00:47:24.561Z,-0.30
2018-11-04T00:49:52.605Z,-0.30
2018-11-04T00:52:20.767Z,-0.30
2018-11-04T00:54:49.064Z,-0.30
2018-11-04T00:57:17.145Z,-0.40
2018-11-04T00:59:45.222Z,-0.50
2018-11-04T01:02:13.382Z,-0.50
2018-11-04T01:04:41.446Z,-0.50
2018-11-04T01:07:09.893Z,-0.50
2018-11-04T01:09:38.026Z,-0.60
2018-11-04T01:12:06.159Z,-0.60
2018-11-04T01:14:34.453Z,-0.60
2018-11-04T01:17:02.547Z,-0.60
2018-11-04T01:19:30.645Z,-0.60
2018-11-04T01:21:58.757Z,-0.60
2018-11-04T01:24:26.931Z,-0.70
2018-11-04T01:26:55.067Z,-0.70
2018-11-04T01:29:23.179Z,-0.80
2018-11-04T01:31:51.283Z,-0.80
2018-11-04T01:34:19.359Z,-0.80
2018-11-04T01:36:47.395Z,-0.80
2018-11-04T01:39:15.508Z,-0.80
2018-11-04T01:41:43.643Z,-0.90
2018-11-04T01:44:12.042Z,-0.90
2018-11-04T01:46:41.249Z,-0.90
2018-11-04T01:49:09.315Z,-0.90
2018-11-04T01:51:37.694Z,-0.90
2018-11-04T01:54:05.999Z,-0.90
2018-11-04T01:56:34.102Z,-1.00
2018-11-04T01:59:02.450Z,-1.00
2018-11-04T02:01:30.585Z,-0.90
2018-11-04T02:03:58.742Z,-0.90
2018-11-04T02:06:26.952Z,-0.90
2018-11-04T02:08:55.117Z,-0.90
2018-11-04T02:11:23.339Z,-0.90
2018-11-04T02:13:51.426Z,-0.90
2018-11-04T02:16:19.541Z,-0.90
2018-11-04T02:18:47.680Z,-0.90
2018-11-04T02:21:15.764Z,-0.90
2018-11-04T02:23:43.846Z,-0.90
2018-11-04T02:26:12.002Z,-0.90
2018-11-04T02:28:40.256Z,-0.80
2018-11-04T02:31:08.366Z,-0.80
2018-11-04T02:33:36.516Z,-0.80
2018-11-04T02:36:04.895Z,-0.70
2018-11-04T02:38:32.998Z,-0.80
2018-11-04T02:41:01.122Z,-0.90
2018-11-04T02:43:29.313Z,-0.90
2018-11-04T02:45:57.452Z,-0.90
2018-11-04T02:48:25.696Z,-0.90
2018-11-04T02:50:53.837Z,-0.90
2018-11-04T02:53:22.096Z,-0.90
2018-11-04T02:55:50.169Z,-0.90
2018-11-04T02:58:18.274Z,-0.90
2018-11-04T03:00:46.303Z,-0.90
2018-11-04T03:03:14.401Z,-0.90
2018-11-04T03:05:42.459Z,-0.90
2018-11-04T03:08:10.607Z,-0.90
2018-11-04T03:10:38.692Z,-0.90
2018-11-04T03:13:06.760Z,-0.90
2018-11-04T03:15:34.857Z,-0.90
2018-11-04T03:18:03.024Z,-0.90
2018-11-04T03:20:31.128Z,-0.90
2018-11-04T03:22:59.253Z,-0.90
2018-11-04T03:25:27.375Z,-0.90
2018-11-04T03:27:55.393Z,-0.90
2018-11-04T03:30:23.548Z,-0.90
2018-11-04T03:32:51.665Z,-0.90
2018-11-04T03:35:19.832Z,-0.90
2018-11-04T03:37:47.876Z,-0.90
2018-11-04T03:40:16.075Z,-0.90
2018-11-04T03:42:44.231Z,-1.00
2018-11-04T03:45:12.329Z,-0.90
2018-11-04T03:47:40.695Z,-0.90
2018-11-04T03:50:10.465Z,-0.80
2018-11-04T03:52:38.656Z,-0.80
2018-11-04T03:55:07.269Z,-0.70
2018-11-04T03:57:35.399Z,-0.70
2018-11-04T04:00:03.706Z,-0.70
2018-11-04T04:02:31.752Z,-0.70
2018-11-04T04:04:59.928Z,-0.70
2018-11-04T04:07:28.064Z,-0.60
2018-11-04T04:09:56.307Z,-0.60
2018-11-04T04:12:24.394Z,-0.60
2018-11-04T04:14:52.494Z,-0.60
2018-11-04T04:17:20.725Z,-0.60
2018-11-04T04:19:48.847Z,-0.60
2018-11-04T04:22:17.045Z,-0.60
2018-11-04T04:24:45.181Z,-0.60
2018-11-04T04:27:13.202Z,-0.60
2018-11-04T04:29:41.300Z,-0.50
2018-11-04T04:32:09.384Z,-0.50
2018-11-04T04:34:37.629Z,-0.50
2018-11-04T04:37:05.913Z,-0.50
2018-11-04T04:39:33.805Z,-0.50
2018-11-04T04:42:01.644Z,-0.60
2018-11-04T04:44:29.495Z,-0.70
2018-11-04T04:46:57.438Z,-0.80
2018-11-04T04:49:25.285Z,-0.80
2018-11-04T04:51:53.153Z,-0.80
2018-11-04T04:54:20.993Z,-0.90
2018-11-04T04:56:48.913Z,-0.90
2018-11-04T04:59:16.753Z,-0.90
2018-11-04T05:01:44.606Z,-0.80
2018-11-04T05:04:12.491Z,-0.80
2018-11-04T05:06:40.334Z,-0.80
2018-11-04T05:09:08.265Z,-0.80
2018-11-04T05:11:36.180Z,-0.70
2018-11-04T05:14:04.106Z,-0.70
2018-11-04T05:16:31.997Z,-0.60
2018-11-04T05:18:59.857Z,-0.60
2018-11-04T05:21:27.727Z,-0.50
2018-11-04T05:23:55.648Z,-0.40
2018-11-04T05:26:23.547Z,-0.30
2018-11-04T05:28:51.463Z,-0.20
2018-11-04T05:31:19.387Z,-0.10
2018-11-04T05:33:47.306Z,0.00
2018-11-04T05:36:15.185Z,0.10
2018-11-04T05:38:43.199Z,0.20
2018-11-04T05:41:11.124Z,0.30
2018-11-04T05:43:38.979Z,0.30
2018-11-04T05:46:07.233Z,0.40
2018-11-04T05:48:35.113Z,0.50
2018-11-04T05:51:03.404Z,0.60
2018-11-04T05:53:31.492Z,0.70
2018-11-04T05:55:59.676Z,0.70
2018-11-04T05:58:27.759Z,0.80
2018-11-04T06:00:55.832Z,0.90
2018-11-04T06:03:23.994Z,1.00
2018-11-04T06:05:52.065Z,1.00
2018-11-04T06:08:20.126Z,1.10
2018-11-04T06:10:48.309Z,1.20
2018-11-04T06:13:16.382Z,1.30
2018-11-04T06:15:44.456Z,1.30
2018-11-04T06:18:12.326Z,1.40
2018-11-04T06:20:40.188Z,1.50
2018-11-04T06:23:08.071Z,1.60
2018-11-04T06:25:35.971Z,1.70
2018-11-04T06:28:03.930Z,1.70
2018-11-04T06:30:31.809Z,1.80
2018-11-04T06:32:59.703Z,1.90
2018-11-04T06:35:27.521Z,1.90
2018-11-04T06:37:55.390Z,2.00
2018-11-04T06:40:23.245Z,2.10
2018-11-04T06:42:51.095Z,2.20
2018-11-04T06:45:19.023Z,2.30
2018-11-04T06:47:47.038Z,2.30
2018-11-04T06:50:14.855Z,2.40
2018-11-04T06:52:43.332Z,2.50
2018-11-04T06:55:11.541Z,2.60
2018-11-04T06:57:40.140Z,2.60
2018-11-04T07:00:10.061Z,2.70
2018-11-04T07:02:38.297Z,2.80
2018-11-04T07:05:06.484Z,2.90
2018-11-04T07:07:34.645Z,2.90
2018-11-04T07:10:02.792Z,3.00
2018-11-04T07:12:31.033Z,3.00
2018-11-04T07:14:59.106Z,3.00
2018-11-04T07:17:27.251Z,3.10
2018-11-04T07:19:55.466Z,3.10
2018-11-04T07:22:23.527Z,3.20
2018-11-04T07:24:51.645Z,3.20
2018-11-04T07:27:19.842Z,3.30
2018-11-04T07:29:47.920Z,3.40
2018-11-04T07:32:16.123Z,3.40
2018-11-04T07:34:44.149Z,3.50
2018-11-04T07:37:12.250Z,3.50
2018-11-04T07:39:40.376Z,3.60
2018-11-04T07:42:08.482Z,3.60
2018-11-04T07:44:36.376Z,3.70
2018-11-04T07:47:04.461Z,3.80
2018-11-04T07:49:32.341Z,3.90
2018-11-04T07:52:00.565Z,3.90
2018-11-04T07:54:28.640Z,4.00
2018-11-04T07:56:56.768Z,4.10
2018-11-04T07:59:24.808Z,4.20
2018-11-04T08:01:52.941Z,4.20
2018-11-04T08:04:21.228Z,4.30
2018-11-04T08:06:49.203Z,4.40
2018-11-04T08:09:17.274Z,4.50
2018-11-04T08:11:45.335Z,4.50
2018-11-04T08:14:13.455Z,4.60
2018-11-04T08:16:41.583Z,4.70
2018-11-04T08:19:09.722Z,4.80
2018-11-04T08:21:37.840Z,4.90
2018-11-04T08:24:05.879Z,5.00
2018-11-04T08:26:33.969Z,5.00
2018-11-04T08:29:02.054Z,5.10
2018-11-04T08:31:30.158Z,5.30
2018-11-04T08:33:58.264Z,5.40
2018-11-04T08:36:26.337Z,5.50
2018-11-04T08:38:54.461Z,5.60
2018-11-04T08:41:22.576Z,5.60
2018-11-04T08:43:50.676Z,5.70
2018-11-04T08:46:18.748Z,5.80
2018-11-04T08:48:46.880Z,5.90
2018-11-04T08:51:14.987Z,6.00
2018-11-04T08:53:43.065Z,6.10
2018-11-04T08:56:10.925Z,6.20
2018-11-04T08:58:38.805Z,6.30
2018-11-04T09:01:06.668Z,6.40
2018-11-04T09:03:34.532Z,6.60
2018-11-04T09:06:02.409Z,6.60
2018-11-04T09:08:30.288Z,6.70
2018-11-04T09:10:58.244Z,6.90
2018-11-04T09:13:26.126Z,7.00
2018-11-04T09:15:54.267Z,7.10
2018-11-04T09:18:22.130Z,7.20
2018-11-04T09:20:50.019Z,7.30
2018-11-04T09:23:17.851Z,7.30
2018-11-04T09:25:45.749Z,7.40
2018-11-04T09:28:13.676Z,7.50
2018-11-04T09:30:41.518Z,7.50
2018-11-04T09:33:09.404Z,7.60
2018-11-04T09:35:37.509Z,7.60
2018-11-04T09:38:05.568Z,7.70
2018-11-04T09:40:33.476Z,7.80
2018-11-04T09:43:01.375Z,7.90
2018-11-04T09:45:29.252Z,7.90
2018-11-04T09:47:57.100Z,8.00
2018-11-04T09:50:24.985Z,8.00
2018-11-04T09:52:52.981Z,8.10
2018-11-04T09:55:21.056Z,8.20
2018-11-04T09:57:48.933Z,8.40
2018-11-04T10:00:16.770Z,8.50
2018-11-04T10:02:44.671Z,8.50
2018-11-04T10:05:12.532Z,8.60
2018-11-04T10:07:40.586Z,8.70
2018-11-04T10:10:10.912Z,8.80
2018-11-04T10:12:39.669Z,8.90
2018-11-04T10:15:08.201Z,9.00
2018-11-04T10:17:36.301Z,9.10
2018-11-04T10:20:05.322Z,9.20
2018-11-04T10:22:32.965Z,9.30
2018-11-04T10:25:00.937Z,9.30
2018-11-04T10:27:28.773Z,9.40
2018-11-04T10:29:56.747Z,9.50
2018-11-04T10:32:24.648Z,9.50
2018-11-04T10:34:52.492Z,9.60
2018-11-04T10:37:20.429Z,9.60
2018-11-04T10:39:48.301Z,9.70
2018-11-04T10:42:16.254Z,9.70
2018-11-04T10:44:44.067Z,9.70
2018-11-04T10:47:11.944Z,9.80
2018-11-04T10:49:39.857Z,9.80
2018-11-04T10:52:07.685Z,9.90
2018-11-04T10:54:35.575Z,10.00
2018-11-04T10:57:03.418Z,10.10
2018-11-04T10:59:31.305Z,10.30
2018-11-04T11:01:59.204Z,10.40
2018-11-04T11:04:27.132Z,10.40
2018-11-04T11:06:54.998Z,10.50
2018-11-04T11:09:22.868Z,10.60
2018-11-04T11:11:50.761Z,10.60
2018-11-04T11:14:18.720Z,10.70
2018-11-04T11:16:46.592Z,10.80
2018-11-04T11:19:14.493Z,10.90
2018-11-04T11:21:42.412Z,10.90
2018-11-04T11:24:10.543Z,10.90
2018-11-04T11:26:38.930Z,10.90
2018-11-04T11:29:07.010Z,10.90
2018-11-04T11:31:35.195Z,10.90
2018-11-04T11:34:03.257Z,11.10
2018-11-04T11:36:31.418Z,11.10
2018-11-04T11:38:59.502Z,11.20
2018-11-04T11:41:27.625Z,11.20
2018-11-04T11:43:55.654Z,11.30
2018-11-04T11:46:23.713Z,11.20
2018-11-04T11:48:52.120Z,11.20
2018-11-04T11:51:20.155Z,11.20
2018-11-04T11:53:48.353Z,11.20
2018-11-04T11:56:16.414Z,11.30
2018-11-04T11:58:44.533Z,11.30
2018-11-04T12:01:12.582Z,11.30
2018-11-04T12:03:40.617Z,11.40
2018-11-04T12:06:08.807Z,11.40
2018-11-04T12:08:36.864Z,11.40
2018-11-04T12:11:05.536Z,11.40
2018-11-04T12:13:33.623Z,11.40
2018-11-04T12:16:01.685Z,11.50
2018-11-04T12:18:29.906Z,11.60
2018-11-04T12:20:57.979Z,11.60
2018-11-04T12:23:26.077Z,11.70
2018-11-04T12:25:54.260Z,11.70
2018-11-04T12:28:22.368Z,11.70
2018-11-04T12:30:50.509Z,11.70
2018-11-04T12:33:18.602Z,11.70
2018-11-04T12:35:46.670Z,11.70
2018-11-04T12:38:14.764Z,11.70
2018-11-04T12:40:42.812Z,11.70
2018-11-04T12:43:10.963Z,11.70
2018-11-04T12:45:39.111Z,11.70
2018-11-04T12:48:07.149Z,11.80
2018-11-04T12:50:35.191Z,11.80
2018-11-04T12:53:03.293Z,11.90
2018-11-04T12:55:31.369Z,11.90
2018-11-04T12:57:59.508Z,11.90
2018-11-04T13:00:27.595Z,12.00
2018-11-04T13:02:55.688Z,12.10
2018-11-04T13:05:23.806Z,12.10
2018-11-04T13:07:51.902Z,12.10
2018-11-04T13:10:20.150Z,12.10
2018-11-04T13:12:48.276Z,12.10
2018-11-04T13:15:16.323Z,12.00
2018-11-04T13:17:44.397Z,12.00
2018-11-04T13:20:12.499Z,12.00
2018-11-04T13:22:40.560Z,12.10
2018-11-04T13:25:09.143Z,12.10
2018-11-04T13:27:37.346Z,12.10
2018-11-04T13:30:07.786Z,12.00
2018-11-04T13:32:37.357Z,12.00
2018-11-04T13:35:07.771Z,11.90
2018-11-04T13:37:37.065Z,11.90
2018-11-04T13:40:07.629Z,11.90
2018-11-04T13:42:37.464Z,11.80
2018-11-04T13:45:07.179Z,11.80
2018-11-04T13:47:35.193Z,11.80
2018-11-04T13:50:03.289Z,11.70
2018-11-04T13:52:31.187Z,11.80
2018-11-04T13:54:59.043Z,11.70
2018-11-04T13:57:26.956Z,11.70
2018-11-04T13:59:54.843Z,11.60
2018-11-04T14:02:22.766Z,11.70
2018-11-04T14:04:50.721Z,11.70
2018-11-04T14:07:18.550Z,11.70
2018-11-04T14:09:46.432Z,11.70
2018-11-04T14:12:14.382Z,11.70
2018-11-04T14:14:42.274Z,11.80
2018-11-04T14:17:10.113Z,11.80
2018-11-04T14:19:37.981Z,11.80
2018-11-04T14:22:05.940Z,11.80
2018-11-04T14:24:33.834Z,11.80
2018-11-04T14:27:01.735Z,11.70
2018-11-04T14:29:29.582Z,11.70
2018-11-04T14:31:57.449Z,11.70
2018-11-04T14:34:25.370Z,11.60
2018-11-04T14:36:53.289Z,11.60
2018-11-04T14:39:21.142Z,11.50
2018-11-04T14:41:49.038Z,11.50
2018-11-04T14:44:16.894Z,11.50
2018-11-04T14:46:44.752Z,11.40
2018-11-04T14:49:12.671Z,11.40
2018-11-04T14:51:40.640Z,11.30
2018-11-04T14:54:08.534Z,11.20
2018-11-04T14:56:36.402Z,11.10
2018-11-04T14:59:04.370Z,11.10
2018-11-04T15:01:32.242Z,11.00
2018-11-04T15:04:00.185Z,11.00
2018-11-04T15:06:28.045Z,10.90
2018-11-04T15:08:55.913Z,10.90
2018-11-04T15:11:23.818Z,10.80
2018-11-04T15:13:51.679Z,10.70
2018-11-04T15:16:19.533Z,10.60
2018-11-04T15:18:47.508Z,10.50
2018-11-04T15:21:15.378Z,10.40
2018-11-04T15:23:43.439Z,10.30
2018-11-04T15:26:11.353Z,10.20
2018-11-04T15:28:39.245Z,10.10
2018-11-04T15:31:07.268Z,10.00
2018-11-04T15:33:35.165Z,9.80
2018-11-04T15:36:03.057Z,9.70
2018-11-04T15:38:31.016Z,9.60
2018-11-04T15:40:58.907Z,9.40
2018-11-04T15:43:26.792Z,9.30
2018-11-04T15:45:54.674Z,9.20
2018-11-04T15:48:23.555Z,9.00
2018-11-04T15:50:51.413Z,8.90
2018-11-04T15:53:19.483Z,8.80
2018-11-04T15:55:47.345Z,8.70
2018-11-04T15:58:15.181Z,8.60
2018-11-04T16:00:43.107Z,8.50
2018-11-04T16:03:10.985Z,8.40
2018-11-04T16:05:38.880Z,8.30
2018-11-04T16:08:06.868Z,8.20
2018-11-04T16:10:34.769Z,8.20
2018-11-04T16:13:02.626Z,8.10
2018-11-04T16:15:30.465Z,8.30
2018-11-04T16:17:58.384Z,8.00
2018-11-04T16:20:26.284Z,8.00
2018-11-04T16:22:54.125Z,7.90
2018-11-04T16:25:21.987Z,7.90
2018-11-04T16:27:49.921Z,7.90
2018-11-04T16:30:17.820Z,7.90
2018-11-04T16:32:45.702Z,7.90
2018-11-04T16:35:14.251Z,7.90
2018-11-04T16:37:43.081Z,8.00
2018-11-04T16:40:11.196Z,8.00
2018-11-04T16:42:39.553Z,8.00
2018-11-04T16:45:10.689Z,8.10
2018-11-04T16:47:38.893Z,8.10
2018-11-04T16:50:07.734Z,8.20
2018-11-04T16:52:35.591Z,8.20
2018-11-04T16:55:03.462Z,8.20
2018-11-04T16:57:31.342Z,8.30
2018-11-04T16:59:59.200Z,8.30
2018-11-04T17:02:27.055Z,8.40
2018-11-04T17:04:54.943Z,8.40
2018-11-04T17:07:22.866Z,8.50
2018-11-04T17:09:50.730Z,8.50
2018-11-04T17:12:18.598Z,8.60
2018-11-04T17:14:46.516Z,8.60
2018-11-04T17:17:14.393Z,8.70
2018-11-04T17:19:42.238Z,8.80
2018-11-04T17:22:10.106Z,8.90
2018-11-04T17:24:37.990Z,8.90
2018-11-04T17:27:05.922Z,9.00
2018-11-04T17:29:33.832Z,9.10
2018-11-04T17:32:01.725Z,9.10
2018-11-04T17:34:29.639Z,9.20
2018-11-04T17:36:57.539Z,9.20
2018-11-04T17:39:25.461Z,9.30
2018-11-04T17:41:53.320Z,9.30
2018-11-04T17:44:21.245Z,9.40
2018-11-04T17:46:49.160Z,9.40
2018-11-04T17:49:17.052Z,9.40
2018-11-04T17:51:44.905Z,9.40
2018-11-04T17:54:12.967Z,9.50
2018-11-04T17:56:40.735Z,9.50
2018-11-04T17:59:08.693Z,9.50
2018-11-04T18:01:36.521Z,9.50
2018-11-04T18:04:04.612Z,9.50
2018-11-04T18:06:32.629Z,9.50
2018-11-04T18:09:00.452Z,9.50
2018-11-04T18:11:28.380Z,9.50
2018-11-04T18:13:56.326Z,9.50
2018-11-04T18:16:24.170Z,9.50
2018-11-04T18:18:52.025Z,9.60
2018-11-04T18:21:19.936Z,9.50
2018-11-04T18:23:47.832Z,9.50
2018-11-04T18:26:15.672Z,9.50
2018-11-04T18:28:43.656Z,9.50
2018-11-04T18:31:11.560Z,9.50
2018-11-04T18:33:39.394Z,9.50
2018-11-04T18:36:07.264Z,9.50
2018-11-04T18:38:35.100Z,9.50
2018-11-04T18:41:02.995Z,9.50
2018-11-04T18:43:30.909Z,9.50
2018-11-04T18:45:58.858Z,9.50
2018-11-04T18:48:26.825Z,9.50
2018-11-04T18:50:54.673Z,9.50
2018-11-04T18:53:22.577Z,9.50
2018-11-04T18:55:50.569Z,9.50
2018-11-04T18:58:18.612Z,9.50
2018-11-04T19:00:46.534Z,9.40
2018-11-04T19:03:14.423Z,9.40
2018-11-04T19:05:42.371Z,9.40
2018-11-04T19:08:10.221Z,9.40
2018-11-04T19:10:38.228Z,9.40
2018-11-04T19:13:06.123Z,9.40
2018-11-04T19:15:34.019Z,9.40
2018-11-04T19:18:01.939Z,9.40
2018-11-04T19:20:29.863Z,9.40
2018-11-04T19:22:57.760Z,9.40
2018-11-04T19:25:25.734Z,9.40
2018-11-04T19:27:53.601Z,9.40
2018-11-04T19:30:21.767Z,9.40
2018-11-04T19:32:49.636Z,9.40
2018-11-04T19:35:17.940Z,9.30
2018-11-04T19:37:45.804Z,9.30
2018-11-04T19:40:14.660Z,9.30
2018-11-04T19:42:42.693Z,9.30
2018-11-04T19:45:10.389Z,9.30
2018-11-04T19:47:38.996Z,9.30
2018-11-04T19:50:08.682Z,9.30
2018-11-04T19:52:36.620Z,9.30
2018-11-04T19:55:04.969Z,9.30
2018-11-04T19:57:33.120Z,9.30
2018-11-04T20:00:01.074Z,9.30
2018-11-04T20:02:30.007Z,9.30
2018-11-04T20:04:58.401Z,9.30
2018-11-04T20:07:26.501Z,9.30
2018-11-04T20:09:54.414Z,9.30
2018-11-04T20:13:25.602Z,9.30
2018-11-04T20:15:53.537Z,9.40
2018-11-04T20:18:27.028Z,9.30
2018-11-04T20:20:55.094Z,9.30
2018-11-04T20:23:23.493Z,9.40
2018-11-04T20:25:57.039Z,9.30
2018-11-04T20:28:25.220Z,9.40
2018-11-04T20:30:53.372Z,9.40
2018-11-04T20:33:21.268Z,9.40
2018-11-04T20:35:49.592Z,9.40
2018-11-04T20:38:18.208Z,9.40
2018-11-04T20:40:52.174Z,9.40
2018-11-04T20:43:20.369Z,9.40
2018-11-04T20:45:48.733Z,9.40
2018-11-04T20:48:22.368Z,9.40
2018-11-04T20:50:55.803Z,9.40
2018-11-04T20:53:24.084Z,9.40
2018-11-04T20:55:57.708Z,9.40
2018-11-04T20:58:25.599Z,9.40
2018-11-04T21:00:53.433Z,9.40
2018-11-04T21:03:21.315Z,9.40
2018-11-04T21:05:49.415Z,9.40
2018-11-04T21:08:17.257Z,9.40
2018-11-04T21:10:45.097Z,9.40
2018-11-04T21:13:12.981Z,9.40
2018-11-04T21:15:40.939Z,9.40
2018-11-04T21:18:08.782Z,9.40
2018-11-04T21:20:36.648Z,9.30
2018-11-04T21:23:04.526Z,9.30
2018-11-04T21:25:32.633Z,9.30
2018-11-04T21:28:00.424Z,9.30
2018-11-04T21:30:28.204Z,9.30
2018-11-04T21:32:56.087Z,9.30
2018-11-04T21:35:23.956Z,9.30
2018-11-04T21:37:51.880Z,9.30
2018-11-04T21:40:19.733Z,9.30
2018-11-04T21:42:47.759Z,9.30
2018-11-04T21:45:15.485Z,9.30
2018-11-04T21:47:43.416Z,9.30
2018-11-04T21:50:11.792Z,9.30
2018-11-04T21:52:39.649Z,9.30
2018-11-04T21:55:09.524Z,9.30
2018-11-04T21:57:37.605Z,9.30
2018-11-04T22:00:07.349Z,9.30
2018-11-04T22:02:35.369Z,9.30
2018-11-04T22:05:03.141Z,9.30
2018-11-04T22:07:30.948Z,9.30
2018-11-04T22:09:58.886Z,9.30
2018-11-04T22:12:26.789Z,9.30
2018-11-04T22:14:54.688Z,9.30
2018-11-04T22:17:22.517Z,9.30
2018-11-04T22:19:50.441Z,9.30
2018-11-04T22:22:18.361Z,9.30
2018-11-04T22:24:46.204Z,9.30
2018-11-04T22:27:14.121Z,9.30
2018-11-04T22:29:42.013Z,9.30
2018-11-04T22:32:09.874Z,9.30
2018-11-04T22:34:37.778Z,9.20
2018-11-04T22:37:06.023Z,9.20
2018-11-04T22:39:34.131Z,9.20
2018-11-04T22:42:02.321Z,9.20
2018-11-04T22:44:30.591Z,9.30
2018-11-04T22:46:58.479Z,9.30
2018-11-04T22:49:26.746Z,9.20
2018-11-04T22:51:54.851Z,9.30
2018-11-04T22:54:22.861Z,9.30
2018-11-04T22:56:50.778Z,9.30
2018-11-04T22:59:18.661Z,9.20
2018-11-04T23:01:46.543Z,9.30
2018-11-04T23:04:14.483Z,9.30
2018-11-04T23:06:42.361Z,9.30
2018-11-04T23:09:10.544Z,9.30
2018-11-04T23:11:38.757Z,9.30
2018-11-04T23:14:06.851Z,9.30
2018-11-04T23:16:34.895Z,9.30
2018-11-04T23:19:03.168Z,9.60
2018-11-04T23:21:31.222Z,9.30
2018-11-04T23:23:59.290Z,9.30
2018-11-04T23:26:27.401Z,9.30
2018-11-04T23:28:55.478Z,9.30
2018-11-04T23:31:23.655Z,9.30
2018-11-04T23:33:51.677Z,9.30
2018-11-04T23:36:19.594Z,9.30
2018-11-04T23:38:47.434Z,9.30
2018-11-04T23:41:15.571Z,9.30
2018-11-04T23:43:43.665Z,9.30
2018-11-04T23:46:11.720Z,9.30
2018-11-04T23:48:39.918Z,9.30
2018-11-04T23:51:07.992Z,9.30
2018-11-04T23:53:36.064Z,9.30
2018-11-04T23:56:04.344Z,9.30
2018-11-04T23:58:32.520Z,9.30
